Time;durP1;ratioP1;P1;durP2;ratioP2;P2;SDS_P1;SDS_P2;PMS_P1;PMS_P2;Temp;Humidity;BMP_temperature;BMP_pressure;BME280_temperature;BME280_humidity;BME280_pressure;Samples;Min_cycle;Max_cycle;Signal;HPM_P1;HPM_P2
2023/03/09 00:00:55;;;;;;;18.00;12.60;;;;;;;0.86;76.84;98553.77;107139;1256;1017137;-73
2023/03/09 00:05:57;;;;;;;18.20;13.30;;;;;;;0.85;77.04;98551.02;107057;1256;1016467;-72
2023/03/09 00:10:52;;;;;;;20.70;14.20;;;;;;;0.85;77.18;98559.20;106943;1256;1070920;-72
2023/03/09 00:15:49;;;;;;;18.10;12.20;;;;;;;0.84;77.05;98565.67;107101;1259;1050706;-72
2023/03/09 00:20:42;;;;;;;21.90;13.30;;;;;;;0.85;77.25;98567.23;107083;1256;1058791;-72
2023/03/09 00:25:35;;;;;;;16.20;12.70;;;;;;;0.84;77.31;98561.58;107096;1256;1016947;-73
2023/03/09 00:30:28;;;;;;;14.70;12.10;;;;;;;0.83;77.16;98568.73;107033;1256;1016134;-72
2023/03/09 00:35:21;;;;;;;13.30;10.50;;;;;;;0.82;77.48;98564.95;106887;1259;1016509;-72
2023/03/09 00:40:16;;;;;;;17.60;11.50;;;;;;;0.79;77.51;98566.74;107106;1256;1051543;-72
2023/03/09 00:45:10;;;;;;;15.20;11.10;;;;;;;0.77;77.43;98567.06;106973;1256;1018370;-73
2023/03/09 00:50:04;;;;;;;14.20;9.80;;;;;;;0.75;77.40;98557.83;107020;1256;1016267;-75
2023/03/09 00:54:57;;;;;;;13.50;10.20;;;;;;;0.75;77.78;98554.23;106910;1257;1016531;-73
2023/03/09 00:59:51;;;;;;;14.80;10.20;;;;;;;0.74;77.76;98549.61;106793;1256;1016327;-73
2023/03/09 01:04:46;;;;;;;14.70;10.40;;;;;;;0.72;77.75;98543.26;106852;1256;1052284;-74
2023/03/09 01:09:40;;;;;;;12.70;9.80;;;;;;;0.72;77.86;98538.29;106877;1257;1016357;-73
2023/03/09 01:14:36;;;;;;;13.00;9.60;;;;;;;0.70;77.87;98532.14;106805;1258;1016427;-73
2023/03/09 01:19:30;;;;;;;12.30;9.10;;;;;;;0.72;78.25;98535.25;106873;1260;1064993;-73
2023/03/09 01:24:26;;;;;;;15.00;10.00;;;;;;;0.67;77.93;98525.75;106989;1256;1071320;-72
2023/03/09 01:29:22;;;;;;;12.60;9.50;;;;;;;0.63;78.05;98523.45;106919;1259;1052190;-73
2023/03/09 01:34:15;;;;;;;13.60;9.80;;;;;;;0.58;78.35;98515.84;106952;1259;1016093;-73
2023/03/09 01:39:10;;;;;;;13.30;9.00;;;;;;;0.55;78.09;98522.27;106884;1258;1016720;-73
2023/03/09 01:44:03;;;;;;;10.80;7.20;;;;;;;0.54;78.18;98516.27;106835;1257;1066382;-73
2023/03/09 01:49:02;;;;;;;12.50;8.50;;;;;;;0.51;78.33;98513.98;106972;1259;1016485;-73
2023/03/09 01:53:55;;;;;;;10.50;7.40;;;;;;;0.52;78.42;98520.66;107010;1256;1051206;-73
2023/03/09 01:58:50;;;;;;;12.20;8.00;;;;;;;0.54;78.43;98522.57;107032;1257;1016340;-73
2023/03/09 02:03:48;;;;;;;11.80;8.70;;;;;;;0.54;78.45;98523.10;107187;1256;1073796;-72
2023/03/09 02:08:49;;;;;;;11.10;9.00;;;;;;;0.54;78.58;98531.27;107144;1257;1064943;-73
2023/03/09 02:13:47;;;;;;;12.60;7.90;;;;;;;0.53;78.55;98532.44;107114;1257;1070941;-73
2023/03/09 02:18:40;;;;;;;9.10;7.30;;;;;;;0.52;78.50;98533.27;107129;1256;1050510;-73
2023/03/09 02:23:43;;;;;;;9.80;7.30;;;;;;;0.53;78.62;98537.38;106958;1256;1178247;-73
2023/03/09 02:28:36;;;;;;;9.60;7.00;;;;;;;0.53;78.99;98533.13;107114;1257;1072837;-72
2023/03/09 02:33:30;;;;;;;12.90;8.40;;;;;;;0.53;78.96;98534.99;107137;1256;1016253;-73
2023/03/09 02:38:24;;;;;;;12.10;8.10;;;;;;;0.53;78.70;98534.83;107049;1257;1016521;-73
2023/03/09 02:43:23;;;;;;;12.20;9.10;;;;;;;0.51;78.85;98537.33;107141;1257;1017520;-73
2023/03/09 02:48:16;;;;;;;10.30;8.10;;;;;;;0.49;79.04;98545.13;107069;1256;1058426;-73
2023/03/09 02:53:09;;;;;;;11.30;8.40;;;;;;;0.49;78.89;98552.63;107003;1259;1016388;-73
2023/03/09 02:58:02;;;;;;;11.50;8.50;;;;;;;0.49;79.09;98551.77;107113;1256;1016361;-73
2023/03/09 03:02:56;;;;;;;11.40;8.40;;;;;;;0.50;79.19;98542.93;107027;1257;1016221;-73
2023/03/09 03:07:50;;;;;;;10.70;8.20;;;;;;;0.49;79.19;98537.48;107122;1257;1016613;-73
2023/03/09 03:12:43;;;;;;;11.30;8.20;;;;;;;0.49;79.20;98520.77;107137;1259;1016247;-73
2023/03/09 03:17:36;;;;;;;11.00;9.10;;;;;;;0.48;79.22;98521.25;107011;1257;1016494;-73
2023/03/09 03:22:30;;;;;;;14.50;8.50;;;;;;;0.46;79.13;98524.27;107044;1256;1015939;-73
2023/03/09 03:27:23;;;;;;;12.00;8.60;;;;;;;0.45;79.50;98530.70;107150;1257;1016585;-73
2023/03/09 03:32:16;;;;;;;12.80;9.90;;;;;;;0.44;79.29;98530.70;107050;1256;1016450;-73
2023/03/09 03:37:10;;;;;;;15.00;9.90;;;;;;;0.42;79.52;98534.73;107113;1257;1016144;-73
2023/03/09 03:42:04;;;;;;;16.90;10.30;;;;;;;0.40;79.48;98534.70;107211;1257;1016430;-73
2023/03/09 03:46:57;;;;;;;14.50;10.70;;;;;;;0.37;79.72;98546.73;107095;1259;1016285;-72
2023/03/09 03:51:51;;;;;;;15.20;11.40;;;;;;;0.36;79.50;98540.93;107192;1259;1016385;-72
2023/03/09 03:56:45;;;;;;;15.10;11.40;;;;;;;0.37;79.80;98546.90;106995;1257;1016391;-72
2023/03/09 04:01:39;;;;;;;14.50;10.80;;;;;;;0.36;79.94;98560.54;106912;1259;1018635;-72
2023/03/09 04:06:35;;;;;;;15.50;10.90;;;;;;;0.35;79.60;98568.52;107097;1259;1072846;-72
2023/03/09 04:11:28;;;;;;;14.90;10.80;;;;;;;0.34;79.88;98570.54;107085;1257;1015964;-72
2023/03/09 04:16:21;;;;;;;14.30;10.80;;;;;;;0.35;79.64;98573.29;107118;1260;1016157;-72
2023/03/09 04:21:15;;;;;;;16.20;11.10;;;;;;;0.35;79.60;98569.02;107095;1257;1016419;-72
2023/03/09 04:26:11;;;;;;;15.60;11.30;;;;;;;0.33;79.86;98571.72;107080;1257;1016510;-72
2023/03/09 04:31:11;;;;;;;17.20;10.60;;;;;;;0.32;80.00;98573.23;107116;1257;1073565;-72
2023/03/09 04:36:05;;;;;;;15.60;10.20;;;;;;;0.30;79.89;98570.94;106996;1259;1016464;-72
2023/03/09 04:41:00;;;;;;;12.30;9.40;;;;;;;0.27;79.50;98566.30;107024;1260;1070654;-73
2023/03/09 04:45:54;;;;;;;12.70;9.20;;;;;;;0.24;79.63;98563.98;107080;1260;1016488;-73
2023/03/09 04:50:47;;;;;;;10.30;8.20;;;;;;;0.20;79.61;98577.54;107048;1257;1016467;-73
2023/03/09 04:55:41;;;;;;;11.00;7.50;;;;;;;0.17;79.51;98587.01;107088;1259;1017773;-73
2023/03/09 05:00:37;;;;;;;12.10;9.00;;;;;;;0.14;79.54;98583.86;107105;1258;1065352;-73
2023/03/09 05:05:32;;;;;;;9.80;7.50;;;;;;;0.12;79.61;98582.45;107082;1259;1071009;-72
2023/03/09 05:10:27;;;;;;;10.30;7.60;;;;;;;0.09;79.54;98584.92;107143;1257;1051221;-73
2023/03/09 05:15:22;;;;;;;10.00;7.70;;;;;;;0.07;79.78;98580.80;107130;1260;1058049;-73
2023/03/09 05:20:16;;;;;;;10.50;8.10;;;;;;;0.07;79.58;98575.17;106979;1257;1016472;-73
2023/03/09 05:25:16;;;;;;;11.80;7.60;;;;;;;0.09;79.60;98574.35;107095;1257;1066034;-73
2023/03/09 05:30:11;;;;;;;11.20;8.10;;;;;;;0.11;79.91;98582.77;107055;1257;1016308;-73
2023/03/09 05:35:06;;;;;;;11.50;8.80;;;;;;;0.11;79.60;98597.42;107146;1260;1051408;-72
2023/03/09 05:39:59;;;;;;;11.80;8.80;;;;;;;0.13;79.56;98600.88;107025;1257;1016069;-72
2023/03/09 05:44:54;;;;;;;13.90;9.50;;;;;;;0.16;79.74;98611.69;107073;1257;1016300;-72
2023/03/09 05:49:49;;;;;;;11.70;8.80;;;;;;;0.16;79.47;98610.48;107068;1257;1016445;-73
2023/03/09 05:54:44;;;;;;;12.40;9.70;;;;;;;0.16;79.27;98600.42;106888;1257;1070653;-73
2023/03/09 05:59:40;;;;;;;12.00;9.20;;;;;;;0.17;79.56;98594.50;106944;1257;1051346;-73
2023/03/09 06:04:33;;;;;;;10.80;9.10;;;;;;;0.20;79.35;98597.30;107023;1258;1016437;-73
2023/03/09 06:09:29;;;;;;;12.00;8.00;;;;;;;0.22;79.68;98600.58;107040;1260;1073172;-72
2023/03/09 06:14:23;;;;;;;10.90;8.60;;;;;;;0.22;79.27;98611.50;106860;1257;1017989;-73
2023/03/09 06:19:15;;;;;;;14.00;9.10;;;;;;;0.22;79.26;98615.76;106968;1257;1016424;-73
2023/03/09 06:24:10;;;;;;;13.00;9.80;;;;;;;0.25;79.25;98619.74;106976;1258;1016084;-73
2023/03/09 06:29:03;;;;;;;12.90;9.10;;;;;;;0.27;79.14;98626.94;107157;1257;1016162;-72
2023/03/09 06:33:57;;;;;;;15.90;9.80;;;;;;;0.31;79.03;98629.25;107048;1258;1018717;-73
2023/03/09 06:38:51;;;;;;;13.00;9.80;;;;;;;0.40;78.74;98631.34;106993;1258;1016218;-73
2023/03/09 06:43:50;;;;;;;13.70;9.50;;;;;;;0.59;78.63;98622.77;106935;1257;1069785;-73
2023/03/09 06:48:43;;;;;;;14.00;8.80;;;;;;;0.76;78.64;98618.54;106928;1257;1016421;-73
2023/03/09 06:53:36;;;;;;;17.20;11.80;;;;;;;0.87;78.21;98623.22;106958;1257;1016390;-73
2023/03/09 06:58:33;;;;;;;10.60;8.70;;;;;;;1.00;78.05;98629.48;106883;1259;1073424;-73
2023/03/09 07:03:26;;;;;;;11.40;9.10;;;;;;;1.15;77.93;98630.64;107005;1260;1016463;-73
2023/03/09 07:08:20;;;;;;;11.70;9.70;;;;;;;1.31;77.50;98623.31;107040;1258;1016114;-74
2023/03/09 07:13:14;;;;;;;12.80;10.20;;;;;;;1.48;76.84;98614.59;107011;1257;1016842;-73
2023/03/09 07:18:07;;;;;;;11.80;9.30;;;;;;;1.62;76.64;98612.13;107079;1258;1059489;-73
2023/03/09 07:23:00;;;;;;;11.90;10.20;;;;;;;1.62;76.46;98618.11;107048;1260;1016378;-73
2023/03/09 07:27:53;;;;;;;12.60;9.80;;;;;;;1.56;76.49;98618.67;107126;1260;1016339;-73
2023/03/09 07:32:46;;;;;;;12.30;10.70;;;;;;;1.51;76.48;98623.86;107022;1260;1016509;-72
2023/03/09 07:37:40;;;;;;;15.00;10.50;;;;;;;1.69;76.10;98631.04;106979;1257;1016116;-73
2023/03/09 07:42:35;;;;;;;13.20;10.20;;;;;;;1.83;75.86;98631.13;107077;1257;1061398;-73
2023/03/09 07:47:43;;;;;;;13.30;9.70;;;;;;;1.89;75.82;98632.09;107028;1256;1072774;-73
2023/03/09 07:52:37;;;;;;;10.90;8.80;;;;;;;1.93;75.74;98634.73;106902;1257;1016475;-72
2023/03/09 07:57:34;;;;;;;10.70;9.10;;;;;;;1.96;75.81;98647.08;106698;1257;1016343;-72
2023/03/09 08:02:27;;;;;;;13.60;9.90;;;;;;;2.14;75.42;98642.96;107057;1262;1051255;-73
2023/03/09 08:07:20;;;;;;;11.70;9.40;;;;;;;2.23;74.98;98642.77;106859;1257;1016475;-73
2023/03/09 08:12:13;;;;;;;11.70;9.50;;;;;;;2.28;74.39;98644.92;106777;1259;1016492;-72
2023/03/09 08:17:06;;;;;;;9.90;8.70;;;;;;;2.31;74.56;98645.65;106816;1257;1016447;-72
2023/03/09 08:21:58;;;;;;;9.20;8.20;;;;;;;2.45;74.37;98648.27;106890;1259;1016055;-72
2023/03/09 08:26:51;;;;;;;10.20;8.70;;;;;;;2.50;73.98;98646.46;106853;1257;1016416;-72
2023/03/09 08:31:44;;;;;;;11.90;8.90;;;;;;;2.47;74.16;98653.43;106909;1258;1016959;-72
2023/03/09 08:36:37;;;;;;;10.60;8.10;;;;;;;2.55;74.16;98647.23;106965;1257;1016056;-72
2023/03/09 08:41:30;;;;;;;13.40;8.30;;;;;;;2.57;73.71;98642.83;106912;1257;1016350;-73
2023/03/09 08:46:24;;;;;;;9.20;8.30;;;;;;;2.66;73.48;98643.98;106889;1256;1016226;-72
2023/03/09 08:51:18;;;;;;;10.50;8.40;;;;;;;2.85;73.34;98640.16;106908;1256;1016319;-72
2023/03/09 08:56:12;;;;;;;9.80;8.80;;;;;;;2.91;73.16;98639.56;107071;1256;1016364;-73
2023/03/09 09:01:08;;;;;;;11.40;7.50;;;;;;;2.95;73.25;98633.30;106972;1257;1016360;-72
2023/03/09 09:06:06;;;;;;;9.60;6.90;;;;;;;3.27;72.74;98630.11;107106;1257;1065754;-72
2023/03/09 09:10:59;;;;;;;9.40;8.50;;;;;;;3.48;72.46;98632.60;106944;1256;1070588;-73
2023/03/09 09:15:56;;;;;;;8.00;7.00;;;;;;;3.47;72.13;98630.02;106945;1258;1016205;-72
2023/03/09 09:20:49;;;;;;;9.10;7.20;;;;;;;3.42;72.08;98628.93;107019;1256;1058598;-73
2023/03/09 09:25:42;;;;;;;9.50;6.80;;;;;;;3.48;72.08;98636.53;107001;1256;1016398;-73
2023/03/09 09:30:36;;;;;;;9.00;7.50;;;;;;;3.34;71.88;98643.05;107012;1257;1016521;-72
2023/03/09 09:35:29;;;;;;;9.40;6.60;;;;;;;3.26;71.87;98645.69;106935;1256;1016488;-72
2023/03/09 09:40:22;;;;;;;6.70;5.30;;;;;;;3.12;72.31;98653.38;106930;1259;1019190;-72
2023/03/09 09:45:25;;;;;;;7.00;5.90;;;;;;;3.01;72.00;98666.06;106887;1256;1016511;-72
2023/03/09 09:50:18;;;;;;;6.20;5.50;;;;;;;2.84;72.43;98663.26;106927;1256;1071619;-72
2023/03/09 09:55:26;;;;;;;6.50;5.30;;;;;;;2.61;72.44;98673.16;107018;1257;1016440;-72
2023/03/09 10:00:35;;;;;;;9.10;4.80;;;;;;;2.42;72.45;98678.83;107025;1256;1073049;-72
2023/03/09 10:05:41;;;;;;;6.90;4.60;;;;;;;2.38;72.97;98691.08;107006;1256;1050580;-73
2023/03/09 10:10:34;;;;;;;5.10;4.60;;;;;;;2.46;72.55;98692.06;106936;1256;1057069;-73
2023/03/09 10:15:30;;;;;;;5.90;5.00;;;;;;;2.55;72.43;98693.41;106973;1257;1016455;-73
2023/03/09 10:20:31;;;;;;;5.00;4.30;;;;;;;2.49;72.20;98696.39;106983;1256;1066507;-72
2023/03/09 10:25:26;;;;;;;5.60;4.90;;;;;;;2.52;72.45;98701.08;107009;1257;1071179;-73
2023/03/09 10:30:42;;;;;;;8.50;5.70;;;;;;;2.56;72.61;98705.21;107016;1256;1053537;-72
2023/03/09 10:35:45;;;;;;;6.20;5.50;;;;;;;2.69;72.78;98711.77;106984;1256;1057923;-72
2023/03/09 10:40:46;;;;;;;7.40;5.50;;;;;;;2.73;71.89;98709.28;107061;1256;1073572;-73
2023/03/09 10:45:39;;;;;;;6.60;5.00;;;;;;;2.83;72.25;98707.38;107010;1257;1068045;-73
2023/03/09 10:50:40;;;;;;;5.50;4.90;;;;;;;2.92;71.87;98710.41;106995;1256;1015936;-73
2023/03/09 10:55:39;;;;;;;6.90;5.10;;;;;;;2.95;71.90;98712.36;106946;1257;1051495;-73
2023/03/09 11:00:34;;;;;;;5.90;4.90;;;;;;;3.02;71.81;98715.21;107004;1256;1058902;-74
2023/03/09 11:05:30;;;;;;;7.60;4.90;;;;;;;3.03;71.30;98712.81;106998;1257;1017430;-73
2023/03/09 11:10:29;;;;;;;6.40;5.10;;;;;;;3.04;71.56;98710.60;107018;1260;1065305;-74
2023/03/09 11:15:28;;;;;;;5.30;4.50;;;;;;;3.13;71.37;98709.70;107001;1257;1071167;-74
2023/03/09 11:20:28;;;;;;;7.20;4.40;;;;;;;3.14;71.18;98710.75;106983;1256;1051059;-74
2023/03/09 11:25:31;;;;;;;6.80;4.40;;;;;;;3.02;70.52;98709.73;107085;1257;1061118;-73
2023/03/09 11:30:28;;;;;;;4.30;3.90;;;;;;;2.98;70.69;98705.73;107011;1257;1072718;-73
2023/03/09 11:35:23;;;;;;;4.80;4.00;;;;;;;3.21;70.53;98711.55;107042;1259;1065581;-73
2023/03/09 11:40:20;;;;;;;6.90;4.10;;;;;;;3.40;70.43;98709.08;107004;1256;1070921;-72
2023/03/09 11:45:25;;;;;;;5.20;4.10;;;;;;;3.32;70.29;98705.38;106981;1256;1050533;-72
2023/03/09 11:50:22;;;;;;;4.80;4.30;;;;;;;2.98;70.45;98704.02;106980;1256;1058654;-74
2023/03/09 11:55:19;;;;;;;4.70;4.20;;;;;;;2.62;70.50;98725.34;107011;1257;1072768;-72
2023/03/09 12:00:18;;;;;;;5.50;4.50;;;;;;;2.51;71.10;98732.67;106983;1256;1065080;-73
2023/03/09 12:05:14;;;;;;;7.40;4.80;;;;;;;2.46;70.90;98734.48;107010;1256;1070801;-72
2023/03/09 12:10:28;;;;;;;7.30;5.40;;;;;;;2.41;71.16;98736.44;106977;1256;1050105;-73
2023/03/09 12:16:00;;;;;;;7.10;5.40;;;;;;;2.41;71.56;98742.25;106891;1257;1058806;-73
2023/03/09 12:20:56;;;;;;;7.50;5.80;;;;;;;2.35;71.36;98742.65;106962;1260;1073570;-73
2023/03/09 12:25:57;;;;;;;7.60;6.40;;;;;;;2.38;72.02;98747.48;107025;1256;1065205;-74
2023/03/09 12:30:56;;;;;;;8.00;6.40;;;;;;;2.25;72.09;98751.89;107036;1256;1071496;-73
2023/03/09 12:35:48;;;;;;;7.00;5.80;;;;;;;2.17;72.49;98755.34;107069;1259;1053633;-73
2023/03/09 12:40:42;;;;;;;6.10;5.40;;;;;;;2.00;72.20;98760.11;107023;1256;1016042;-73
2023/03/09 12:45:35;;;;;;;5.70;4.70;;;;;;;1.80;72.56;98766.55;106955;1258;1016405;-73
2023/03/09 12:50:45;;;;;;;5.50;3.60;;;;;;;1.64;72.48;98767.21;106974;1256;1016477;-73
2023/03/09 12:55:38;;;;;;;5.60;4.60;;;;;;;1.53;73.11;98778.63;106985;1260;1071181;-73
2023/03/09 13:00:38;;;;;;;6.60;4.50;;;;;;;1.53;73.00;98788.52;107044;1258;1016518;-72
2023/03/09 13:05:42;;;;;;;7.80;5.30;;;;;;;1.65;73.53;98801.93;107121;1257;1058237;-74
2023/03/09 13:10:38;;;;;;;6.70;5.30;;;;;;;1.80;73.41;98804.64;107031;1256;1073045;-73
2023/03/09 13:15:31;;;;;;;7.40;5.60;;;;;;;1.87;73.40;98808.38;107087;1256;1065860;-73
2023/03/09 13:20:35;;;;;;;6.40;4.50;;;;;;;1.84;73.42;98816.85;107000;1256;1016384;-72
2023/03/09 13:25:33;;;;;;;7.10;4.90;;;;;;;1.80;73.50;98828.03;107056;1259;1050103;-74
2023/03/09 13:30:27;;;;;;;6.00;4.70;;;;;;;1.81;73.40;98832.67;106985;1257;1058502;-72
2023/03/09 13:35:23;;;;;;;7.30;4.50;;;;;;;1.85;73.51;98838.05;107019;1257;1016452;-72
2023/03/09 13:40:17;;;;;;;5.80;4.00;;;;;;;1.78;73.55;98838.08;107064;1258;1065685;-72
2023/03/09 13:45:20;;;;;;;6.70;4.10;;;;;;;1.69;73.38;98857.02;106984;1256;1016351;-72
2023/03/09 13:50:20;;;;;;;8.40;3.70;;;;;;;1.81;73.26;98863.78;106925;1259;1050776;-73
2023/03/09 13:55:20;;;;;;;4.80;3.40;;;;;;;1.99;72.92;98876.45;106984;1260;1061534;-75
2023/03/09 14:00:24;;;;;;;6.90;4.40;;;;;;;1.79;72.67;98900.62;106812;1256;1073322;-72
2023/03/09 14:05:24;;;;;;;4.50;3.30;;;;;;;1.63;72.91;98897.69;106952;1256;1065137;-72
2023/03/09 14:10:39;;;;;;;5.60;3.30;;;;;;;1.59;73.46;98903.39;106934;1256;1074473;-73
2023/03/09 14:15:33;;;;;;;6.20;3.90;;;;;;;1.48;73.40;98910.30;107044;1257;1051074;-72
2023/03/09 14:20:38;;;;;;;5.70;4.10;;;;;;;1.27;73.60;98920.73;106946;1256;1016613;-71
2023/03/09 14:25:36;;;;;;;7.80;3.90;;;;;;;1.16;74.01;98932.73;106932;1256;1075206;-73
2023/03/09 14:30:35;;;;;;;6.30;4.30;;;;;;;1.10;74.00;98929.70;107036;1258;1067617;-73
2023/03/09 14:35:37;;;;;;;3.90;3.00;;;;;;;1.09;74.19;98936.13;106970;1256;1071136;-73
2023/03/09 14:40:35;;;;;;;4.40;3.10;;;;;;;0.93;73.44;98938.27;107062;1256;1053636;-73
2023/03/09 14:45:28;;;;;;;4.30;3.30;;;;;;;0.86;73.77;98949.16;107038;1256;1058995;-73
2023/03/09 14:50:21;;;;;;;3.40;2.50;;;;;;;0.74;73.49;98958.23;106963;1256;1016188;-73
2023/03/09 14:55:23;;;;;;;3.10;2.70;;;;;;;0.65;73.68;98957.98;106949;1259;1016211;-73
2023/03/09 15:00:18;;;;;;;5.20;2.90;;;;;;;0.56;73.59;98965.39;106974;1256;1072858;-72
2023/03/09 15:05:16;;;;;;;4.90;3.20;;;;;;;0.48;73.36;98987.83;107064;1256;1053460;-72
2023/03/09 15:10:10;;;;;;;7.30;4.30;;;;;;;0.43;73.56;98990.57;107064;1259;1057590;-73
2023/03/09 15:15:03;;;;;;;6.30;3.30;;;;;;;0.42;73.50;98995.66;107105;1256;1016808;-72
2023/03/09 15:19:56;;;;;;;4.80;3.30;;;;;;;0.38;73.74;99006.12;107008;1256;1016057;-72
2023/03/09 15:24:49;;;;;;;4.80;3.30;;;;;;;0.36;73.69;99007.07;107066;1257;1016244;-73
2023/03/09 15:29:42;;;;;;;7.00;3.60;;;;;;;0.36;73.94;99000.43;107018;1256;1016472;-72
2023/03/09 15:34:37;;;;;;;5.20;3.30;;;;;;;0.35;73.99;99006.52;107019;1256;1018481;-73
2023/03/09 15:39:31;;;;;;;4.40;3.20;;;;;;;0.31;73.93;99015.97;107036;1259;1073993;-74
2023/03/09 15:44:24;;;;;;;4.90;3.70;;;;;;;0.27;73.78;99024.02;107135;1256;1016443;-72
2023/03/09 15:49:17;;;;;;;5.30;3.20;;;;;;;0.27;74.18;99033.21;106986;1256;1016382;-72
2023/03/09 15:54:10;;;;;;;4.50;3.70;;;;;;;0.23;74.13;99042.29;107032;1256;1016389;-73
2023/03/09 15:59:04;;;;;;;4.50;3.50;;;;;;;0.19;74.06;99044.55;106998;1256;1018118;-72
2023/03/09 16:03:57;;;;;;;4.60;3.70;;;;;;;0.16;74.01;99049.75;106982;1256;1071775;-74
2023/03/09 16:08:51;;;;;;;6.70;3.50;;;;;;;0.13;73.61;99054.92;107030;1256;1017222;-74
2023/03/09 16:13:45;;;;;;;4.10;3.10;;;;;;;0.08;73.72;99056.45;107046;1256;1016454;-73
2023/03/09 16:18:39;;;;;;;4.70;3.00;;;;;;;0.04;73.51;99059.92;106854;1259;1050870;-73
2023/03/09 16:23:32;;;;;;;7.10;4.00;;;;;;;0.05;74.05;99065.05;106948;1256;1016140;-73
2023/03/09 16:28:27;;;;;;;4.10;3.20;;;;;;;0.06;74.04;99085.36;106866;1258;1016426;-74
2023/03/09 16:33:21;;;;;;;4.90;2.60;;;;;;;0.05;73.84;99096.06;106700;1260;1066039;-74
2023/03/09 16:38:15;;;;;;;6.00;3.40;;;;;;;0.02;73.52;99096.83;106842;1256;1016451;-73
2023/03/09 16:43:08;;;;;;;5.60;3.30;;;;;;;0.02;73.50;99103.77;106932;1256;1016394;-74
2023/03/09 16:48:01;;;;;;;8.20;4.80;;;;;;;0.03;73.54;99112.50;106949;1256;1016494;-74
2023/03/09 16:52:54;;;;;;;9.30;5.80;;;;;;;0.02;73.30;99122.38;107072;1256;1016805;-73
2023/03/09 16:57:48;;;;;;;8.10;5.00;;;;;;;0.03;73.61;99126.16;107019;1256;1015909;-72
2023/03/09 17:02:42;;;;;;;6.60;4.60;;;;;;;0.04;73.47;99133.00;107041;1257;1016466;-73
2023/03/09 17:07:35;;;;;;;5.60;4.10;;;;;;;0.06;73.89;99154.35;106906;1255;1018142;-73
2023/03/09 17:12:30;;;;;;;7.40;3.90;;;;;;;0.05;73.94;99167.63;107053;1256;1016164;-73
2023/03/09 17:17:24;;;;;;;5.50;3.80;;;;;;;0.05;73.91;99176.80;106927;1259;1073019;-73
2023/03/09 17:22:17;;;;;;;6.00;3.80;;;;;;;0.05;74.25;99190.44;107015;1256;1016463;-73
2023/03/09 17:27:10;;;;;;;8.10;4.40;;;;;;;0.04;73.99;99186.48;106941;1256;1016401;-74
2023/03/09 17:32:06;;;;;;;6.40;3.90;;;;;;;-0.02;74.30;99185.11;106949;1256;1016392;-74
2023/03/09 17:37:00;;;;;;;10.50;5.40;;;;;;;-0.03;74.58;99196.84;107032;1256;1058550;-73
2023/03/09 17:41:53;;;;;;;8.70;4.90;;;;;;;-0.04;74.47;99212.48;107070;1256;1017472;-73
2023/03/09 17:46:46;;;;;;;6.60;4.50;;;;;;;-0.06;74.43;99209.84;107069;1256;1016366;-73
2023/03/09 17:51:40;;;;;;;8.00;4.40;;;;;;;-0.11;74.23;99202.01;106882;1256;1018311;-73
2023/03/09 17:56:34;;;;;;;7.10;3.80;;;;;;;-0.13;74.73;99197.31;106970;1256;1016334;-74
2023/03/09 18:01:29;;;;;;;6.10;4.20;;;;;;;-0.12;74.89;99192.25;107068;1256;1016722;-73
2023/03/09 18:06:40;;;;;;;5.30;3.70;;;;;;;-0.12;74.96;99174.88;107012;1256;1073046;-73
2023/03/09 18:11:35;;;;;;;8.00;4.50;;;;;;;-0.15;74.96;99166.08;106954;1256;1065177;-74
2023/03/09 18:16:28;;;;;;;6.90;3.90;;;;;;;-0.15;74.86;99176.48;106958;1257;1016675;-74
2023/03/09 18:21:22;;;;;;;8.60;4.70;;;;;;;-0.16;75.13;99180.86;106944;1256;1016128;-73
2023/03/09 18:26:22;;;;;;;5.20;3.70;;;;;;;-0.16;75.14;99186.81;107007;1256;1018458;-74
2023/03/09 18:31:15;;;;;;;8.20;4.10;;;;;;;-0.22;75.01;99186.11;106959;1256;1072992;-73
2023/03/09 18:36:13;;;;;;;8.50;5.00;;;;;;;-0.22;75.17;99185.77;106989;1257;1016468;-74
2023/03/09 18:41:06;;;;;;;8.40;5.20;;;;;;;-0.22;75.26;99182.55;107097;1256;1071447;-74
2023/03/09 18:45:58;;;;;;;7.90;5.40;;;;;;;-0.21;75.27;99194.14;107033;1256;1016479;-74
2023/03/09 18:50:53;;;;;;;12.90;6.40;;;;;;;-0.23;75.18;99203.61;107093;1256;1017397;-74
2023/03/09 18:55:56;;;;;;;11.50;6.00;;;;;;;-0.25;75.14;99191.11;107078;1256;1072673;-74
2023/03/09 19:00:49;;;;;;;13.00;6.10;;;;;;;-0.24;75.10;99200.19;106934;1256;1065597;-73
2023/03/09 19:05:43;;;;;;;8.50;5.50;;;;;;;-0.23;74.79;99213.15;107083;1256;1016477;-74
2023/03/09 19:10:35;;;;;;;9.20;5.60;;;;;;;-0.23;75.16;99220.46;107142;1256;1017373;-74
2023/03/09 19:15:29;;;;;;;10.00;5.40;;;;;;;-0.23;75.18;99233.42;106976;1256;1016495;-74
2023/03/09 19:20:22;;;;;;;11.30;5.80;;;;;;;-0.25;75.14;99234.70;106967;1256;1016500;-73
2023/03/09 19:25:19;;;;;;;9.30;5.30;;;;;;;-0.25;75.26;99232.66;107036;1258;1016352;-74
2023/03/09 19:30:12;;;;;;;12.80;6.10;;;;;;;-0.25;75.32;99229.44;107004;1257;1071026;-73
2023/03/09 19:35:05;;;;;;;9.60;6.30;;;;;;;-0.24;75.37;99231.02;107062;1256;1016400;-74
2023/03/09 19:39:58;;;;;;;9.50;5.60;;;;;;;-0.22;75.54;99224.25;107030;1257;1016479;-73
2023/03/09 19:44:51;;;;;;;11.40;6.50;;;;;;;-0.22;75.37;99226.80;106987;1256;1016118;-74
2023/03/09 19:49:44;;;;;;;10.30;6.10;;;;;;;-0.24;75.50;99231.33;106974;1260;1016227;-74
2023/03/09 19:54:37;;;;;;;10.40;6.00;;;;;;;-0.28;75.51;99235.79;106960;1259;1016352;-74
2023/03/09 19:59:30;;;;;;;12.70;6.90;;;;;;;-0.30;75.42;99232.66;106978;1258;1016418;-74
2023/03/09 20:04:24;;;;;;;13.30;7.20;;;;;;;-0.32;75.40;99223.89;107120;1256;1015991;-74
2023/03/09 20:09:22;;;;;;;9.50;5.80;;;;;;;-0.31;75.68;99232.94;106862;1258;1072548;-74
2023/03/09 20:14:15;;;;;;;;;;;;;;;-0.31;76.01;99233.98;106941;1256;1067874;-74
2023/03/09 20:19:12;;;;;;;14.70;6.70;;;;;;;-0.30;76.04;99266.88;106901;1256;1016003;-74
2023/03/09 20:24:06;;;;;;;12.00;7.50;;;;;;;-0.29;76.06;99281.20;106807;1259;1051532;-74
2023/03/09 20:28:59;;;;;;;9.90;5.70;;;;;;;-0.30;75.55;99270.09;106955;1256;1016528;-74
2023/03/09 20:33:54;;;;;;;11.60;6.20;;;;;;;-0.30;75.56;99263.81;106887;1258;1016271;-73
2023/03/09 20:38:47;;;;;;;9.90;6.30;;;;;;;-0.32;75.82;99242.27;107020;1259;1068154;-74
2023/03/09 20:43:42;;;;;;;10.00;5.80;;;;;;;-0.31;76.06;99241.98;106980;1256;1072984;-74
2023/03/09 20:48:36;;;;;;;12.60;7.10;;;;;;;-0.31;75.83;99249.46;107001;1261;1016034;-74
2023/03/09 20:53:30;;;;;;;11.50;7.10;;;;;;;-0.31;76.02;99246.57;107163;1256;1016291;-73
2023/03/09 20:58:22;;;;;;;11.10;7.10;;;;;;;-0.30;75.83;99238.11;106960;1256;1016116;-74
2023/03/09 21:03:16;;;;;;;11.30;6.90;;;;;;;-0.31;75.95;99238.58;106975;1259;1017571;-74
2023/03/09 21:08:10;;;;;;;13.20;6.90;;;;;;;-0.32;76.14;99237.35;106927;1256;1016219;-74
2023/03/09 21:13:04;;;;;;;15.60;8.80;;;;;;;-0.32;76.09;99236.83;107000;1256;1051401;-74
2023/03/09 21:17:57;;;;;;;13.40;8.10;;;;;;;-0.33;76.17;99223.69;107016;1259;1016423;-74
2023/03/09 21:22:51;;;;;;;14.80;9.30;;;;;;;-0.31;76.08;99234.30;106889;1257;1016466;-74
2023/03/09 21:27:45;;;;;;;13.00;8.20;;;;;;;-0.31;76.44;99227.32;106970;1257;1017010;-74
2023/03/09 21:32:39;;;;;;;17.00;10.20;;;;;;;-0.29;76.24;99222.45;106978;1259;1015846;-74
2023/03/09 21:37:39;;;;;;;14.60;10.30;;;;;;;-0.29;76.39;99221.95;106952;1259;1053449;-74
2023/03/09 21:42:34;;;;;;;15.30;9.10;;;;;;;-0.33;76.47;99210.73;106967;1259;1058773;-74
2023/03/09 21:47:30;;;;;;;20.30;11.40;;;;;;;-0.34;76.51;99209.16;107089;1257;1073168;-74
2023/03/09 21:52:23;;;;;;;15.60;10.10;;;;;;;-0.33;76.57;99205.11;106912;1258;1016389;-74
2023/03/09 21:57:16;;;;;;;13.20;8.60;;;;;;;-0.32;76.72;99202.95;107033;1258;1016283;-74
2023/03/09 22:02:20;;;;;;;13.90;8.60;;;;;;;-0.37;76.26;99200.89;106954;1262;1016448;-74
2023/03/09 22:07:18;;;;;;;14.70;7.60;;;;;;;-0.40;76.58;99203.52;107056;1256;1058310;-74
2023/03/09 22:12:23;;;;;;;15.40;8.50;;;;;;;-0.41;76.62;99202.30;107074;1256;1072730;-74
2023/03/09 22:17:16;;;;;;;17.30;8.60;;;;;;;-0.38;76.53;99198.46;107105;1256;1015778;-74
2023/03/09 22:22:14;;;;;;;17.20;8.70;;;;;;;-0.34;76.78;99198.41;106957;1261;1017661;-74